createdAt,value
2022-10-28T00:01:48.297Z,11.80
2022-10-28T00:04:51.501Z,11.78
2022-10-28T00:07:55.038Z,11.67
2022-10-28T00:11:11.109Z,11.60
2022-10-28T00:14:15.196Z,11.69
2022-10-28T00:17:18.386Z,11.62
2022-10-28T00:20:21.211Z,11.67
2022-10-28T00:23:24.250Z,11.70
2022-10-28T00:26:29.601Z,11.63
2022-10-28T00:29:32.783Z,11.55
2022-10-28T00:32:35.527Z,11.40
2022-10-28T00:35:38.568Z,11.38
2022-10-28T00:38:42.588Z,11.45
2022-10-28T00:41:48.691Z,11.43
2022-10-28T00:44:58.477Z,11.39
2022-10-28T00:48:03.219Z,11.48
2022-10-28T00:51:06.368Z,11.37
2022-10-28T00:54:10.634Z,11.39
2022-10-28T00:57:17.702Z,11.45
2022-10-28T01:00:21.776Z,11.36
2022-10-28T01:03:24.571Z,11.41
2022-10-28T01:06:29.338Z,11.45
2022-10-28T01:09:32.102Z,11.29
2022-10-28T01:13:03.760Z,11.40
2022-10-28T01:16:24.532Z,11.33
2022-10-28T01:19:49.469Z,11.23
2022-10-28T01:23:20.223Z,11.28
2022-10-28T01:26:42.186Z,11.20
2022-10-28T01:30:24.548Z,11.22
2022-10-28T01:33:55.133Z,11.24
2022-10-28T01:37:11.012Z,11.30
2022-10-28T01:40:20.836Z,11.36
2022-10-28T01:43:34.845Z,11.41
2022-10-28T01:46:41.760Z,11.41
2022-10-28T01:50:42.005Z,11.32
2022-10-28T01:53:47.924Z,11.39
2022-10-28T01:56:51.332Z,11.36
2022-10-28T01:59:55.382Z,11.38
2022-10-28T02:02:58.972Z,11.41
2022-10-28T02:06:04.870Z,11.41
2022-10-28T02:09:20.912Z,11.32
2022-10-28T02:12:29.937Z,11.41
2022-10-28T02:15:39.281Z,11.35
2022-10-28T02:18:54.714Z,11.42
2022-10-28T02:22:12.813Z,11.40
2022-10-28T02:25:33.019Z,11.39
2022-10-28T02:28:40.108Z,11.34
2022-10-28T02:31:56.083Z,11.31
2022-10-28T02:35:00.989Z,11.34
2022-10-28T02:38:06.086Z,11.32
2022-10-28T02:41:17.718Z,11.36
2022-10-28T02:44:28.773Z,11.31
2022-10-28T02:47:34.613Z,11.22
2022-10-28T02:50:40.793Z,11.31
2022-10-28T02:53:56.979Z,11.31
2022-10-28T02:57:07.965Z,11.34
2022-10-28T03:00:17.064Z,11.28
2022-10-28T03:03:20.099Z,11.26
2022-10-28T03:06:22.877Z,11.20
2022-10-28T03:09:25.947Z,11.24
2022-10-28T03:12:28.701Z,11.22
2022-10-28T03:15:31.733Z,11.22
2022-10-28T03:18:34.722Z,11.24
2022-10-28T03:21:38.980Z,11.21
2022-10-28T03:24:41.915Z,11.14
2022-10-28T03:27:46.522Z,11.13
2022-10-28T03:30:49.302Z,11.11
2022-10-28T03:33:52.371Z,11.12
2022-10-28T03:36:55.133Z,11.14
2022-10-28T03:39:59.297Z,11.06
2022-10-28T03:43:02.303Z,10.98
2022-10-28T03:46:05.497Z,11.02
2022-10-28T03:49:08.265Z,11.04
2022-10-28T03:52:11.407Z,11.06
2022-10-28T03:55:14.237Z,11.06
2022-10-28T03:58:17.576Z,11.03
2022-10-28T04:01:21.789Z,11.09
2022-10-28T04:04:28.409Z,11.09
2022-10-28T04:07:33.727Z,11.00
2022-10-28T04:10:38.162Z,10.83
2022-10-28T04:13:41.154Z,10.88
2022-10-28T04:16:45.337Z,10.95
2022-10-28T04:19:48.157Z,10.88
2022-10-28T04:22:54.612Z,11.00
2022-10-28T04:25:59.769Z,10.96
2022-10-28T04:29:02.858Z,11.00
2022-10-28T04:32:05.641Z,11.04
2022-10-28T04:35:09.413Z,11.02
2022-10-28T04:38:14.180Z,11.04
2022-10-28T04:41:17.653Z,11.06
2022-10-28T04:44:20.391Z,11.11
2022-10-28T04:47:23.451Z,11.14
2022-10-28T04:50:26.697Z,11.17
2022-10-28T04:53:29.781Z,11.22
2022-10-28T04:56:33.469Z,11.21
2022-10-28T04:59:37.630Z,11.21
2022-10-28T05:02:45.150Z,11.20
2022-10-28T05:05:49.309Z,11.23
2022-10-28T05:08:52.066Z,11.21
2022-10-28T05:11:55.758Z,11.24
2022-10-28T05:14:59.180Z,11.24
2022-10-28T05:18:02.245Z,11.28
2022-10-28T05:21:05.157Z,11.26
2022-10-28T05:24:08.564Z,11.17
2022-10-28T05:27:12.643Z,11.16
2022-10-28T05:30:15.860Z,11.15
2022-10-28T05:33:18.588Z,11.19
2022-10-28T05:36:21.621Z,11.15
2022-10-28T05:39:24.382Z,11.13
2022-10-28T05:42:27.470Z,11.11
2022-10-28T05:45:31.082Z,11.13
2022-10-28T05:48:34.309Z,11.16
2022-10-28T05:51:37.697Z,11.19
2022-10-28T05:54:40.819Z,11.21
2022-10-28T05:57:43.611Z,11.26
2022-10-28T06:00:46.609Z,11.28
2022-10-28T06:03:49.697Z,11.32
2022-10-28T06:06:55.274Z,11.37
2022-10-28T06:09:58.264Z,11.39
2022-10-28T06:12:59.370Z,11.49
2022-10-28T06:16:02.939Z,11.47
2022-10-28T06:19:05.659Z,11.57
2022-10-28T06:22:08.650Z,11.59
2022-10-28T06:25:11.918Z,11.55
2022-10-28T06:28:15.369Z,11.59
2022-10-28T06:31:18.465Z,11.59
2022-10-28T06:34:21.603Z,11.61
2022-10-28T06:37:24.752Z,11.75
2022-10-28T06:40:27.927Z,11.84
2022-10-28T06:43:30.692Z,11.87
2022-10-28T06:46:35.728Z,11.99
2022-10-28T06:49:38.705Z,12.01
2022-10-28T06:52:41.753Z,12.07
2022-10-28T06:55:48.950Z,12.08
2022-10-28T06:58:53.383Z,12.13
2022-10-28T07:01:56.533Z,12.17
2022-10-28T07:04:59.614Z,12.27
2022-10-28T07:08:02.387Z,12.22
2022-10-28T07:11:06.519Z,12.25
2022-10-28T07:14:12.021Z,12.32
2022-10-28T07:17:15.338Z,12.31
2022-10-28T07:20:19.372Z,12.34
2022-10-28T07:23:22.996Z,12.30
2022-10-28T07:26:30.515Z,12.23
2022-10-28T07:29:33.668Z,12.38
2022-10-28T07:32:37.183Z,12.38
2022-10-28T07:35:40.378Z,12.41
2022-10-28T07:38:43.322Z,12.43
2022-10-28T07:41:46.944Z,12.52
2022-10-28T07:44:49.755Z,12.46
2022-10-28T07:47:53.440Z,12.68
2022-10-28T07:50:56.184Z,12.60
2022-10-28T07:53:59.658Z,12.69
2022-10-28T07:57:02.529Z,12.85
2022-10-28T08:00:07.070Z,12.96
2022-10-28T08:03:12.964Z,12.90
2022-10-28T08:06:20.639Z,13.10
2022-10-28T08:09:23.408Z,13.20
2022-10-28T08:12:28.369Z,13.02
2022-10-28T08:15:31.075Z,12.99
2022-10-28T08:18:36.472Z,12.99
2022-10-28T08:21:40.437Z,13.12
2022-10-28T08:24:43.423Z,13.12
2022-10-28T08:27:46.171Z,13.08
2022-10-28T08:31:04.210Z,12.81
2022-10-28T08:34:10.676Z,12.61
2022-10-28T08:37:16.321Z,12.73
2022-10-28T08:40:27.246Z,12.70
2022-10-28T08:43:57.229Z,12.64
2022-10-28T08:47:04.391Z,12.65
2022-10-28T08:50:16.364Z,12.72
2022-10-28T08:53:39.461Z,12.52
2022-10-28T08:56:48.730Z,12.67
2022-10-28T08:59:54.404Z,12.71
2022-10-28T09:03:13.284Z,12.85
2022-10-28T09:06:16.061Z,12.68
2022-10-28T09:09:21.847Z,12.73
2022-10-28T09:12:43.421Z,12.84
2022-10-28T09:16:03.666Z,12.95
2022-10-28T09:19:19.758Z,13.14
2022-10-28T09:22:25.755Z,13.03
2022-10-28T09:25:49.650Z,13.08
2022-10-28T09:29:02.987Z,13.07
2022-10-28T09:32:19.675Z,13.21
2022-10-28T09:35:25.452Z,13.39
2022-10-28T09:38:36.388Z,13.43
2022-10-28T09:41:40.534Z,13.42
2022-10-28T09:44:50.132Z,13.54
2022-10-28T09:47:59.218Z,13.62
2022-10-28T09:51:02.304Z,13.68
2022-10-28T09:54:05.647Z,13.75
2022-10-28T09:57:11.481Z,13.76
2022-10-28T10:00:17.971Z,13.85
2022-10-28T10:03:21.119Z,13.75
2022-10-28T10:06:31.844Z,13.71
2022-10-28T10:09:36.194Z,13.94
2022-10-28T10:12:39.573Z,14.08
2022-10-28T10:15:52.630Z,13.96
2022-10-28T10:18:58.085Z,13.94
2022-10-28T10:22:01.095Z,13.83
2022-10-28T10:25:06.542Z,14.02
2022-10-28T10:28:16.048Z,13.91
2022-10-28T10:31:27.478Z,13.90
2022-10-28T10:34:31.075Z,13.99
2022-10-28T10:37:35.746Z,14.02
2022-10-28T10:40:47.587Z,14.20
2022-10-28T10:43:50.293Z,14.06
2022-10-28T10:46:53.230Z,14.10
2022-10-28T10:50:24.215Z,14.23
2022-10-28T10:53:31.895Z,13.97
2022-10-28T10:56:34.663Z,14.17
2022-10-28T10:59:38.084Z,14.05
2022-10-28T11:02:41.088Z,13.88
2022-10-28T11:06:05.342Z,14.05
2022-10-28T11:09:36.510Z,13.89
2022-10-28T11:12:51.639Z,13.94
2022-10-28T11:16:02.527Z,14.16
2022-10-28T11:19:20.023Z,14.03
2022-10-28T11:22:41.448Z,13.91
2022-10-28T11:25:50.895Z,14.07
2022-10-28T11:29:12.539Z,13.99
2022-10-28T11:32:54.443Z,14.03
2022-10-28T11:36:33.257Z,13.86
2022-10-28T11:40:01.454Z,13.82
2022-10-28T11:43:25.284Z,13.84
2022-10-28T11:46:46.783Z,13.92
2022-10-28T11:50:04.665Z,14.06
2022-10-28T11:53:30.563Z,14.13
2022-10-28T11:56:39.121Z,14.24
2022-10-28T11:59:53.151Z,14.19
2022-10-28T12:03:18.835Z,13.86
2022-10-28T12:06:28.011Z,14.04
2022-10-28T12:09:55.350Z,13.97
2022-10-28T12:13:26.601Z,13.89
2022-10-28T12:16:38.920Z,13.92
2022-10-28T12:19:58.838Z,14.12
2022-10-28T12:23:04.273Z,14.00
2022-10-28T12:26:10.974Z,14.03
2022-10-28T12:29:19.541Z,14.00
2022-10-28T12:32:34.428Z,14.00
2022-10-28T12:35:40.790Z,14.14
2022-10-28T12:39:04.732Z,13.95
2022-10-28T12:42:31.388Z,13.85
2022-10-28T12:45:34.455Z,13.61
2022-10-28T12:48:56.390Z,13.58
2022-10-28T12:52:05.809Z,13.71
2022-10-28T12:55:16.851Z,13.87
2022-10-28T12:58:51.021Z,13.89
2022-10-28T13:01:54.195Z,13.89
2022-10-28T13:04:58.343Z,14.02
2022-10-28T13:08:27.235Z,14.03
2022-10-28T13:12:08.559Z,13.76
2022-10-28T13:15:36.759Z,13.70
2022-10-28T13:18:44.042Z,13.64
2022-10-28T13:22:05.529Z,13.68
2022-10-28T13:25:47.305Z,13.74
2022-10-28T13:28:52.624Z,13.59
2022-10-28T13:31:56.326Z,13.61
2022-10-28T13:34:59.897Z,13.53
2022-10-28T13:38:10.696Z,13.35
2022-10-28T13:41:36.439Z,13.45
2022-10-28T13:44:54.409Z,13.42
2022-10-28T13:48:46.539Z,13.42
2022-10-28T13:51:51.112Z,13.21
2022-10-28T13:54:56.685Z,13.23
2022-10-28T13:58:06.803Z,13.24
2022-10-28T14:01:37.785Z,13.18
2022-10-28T14:04:41.785Z,13.02
2022-10-28T14:08:06.326Z,12.98
2022-10-28T14:11:13.316Z,13.14
2022-10-28T14:14:16.979Z,13.11
2022-10-28T14:17:22.689Z,13.08
2022-10-28T14:20:42.394Z,13.04
2022-10-28T14:23:45.474Z,13.21
2022-10-28T14:27:06.879Z,13.19
2022-10-28T14:30:19.093Z,13.31
2022-10-28T14:33:22.224Z,13.07
2022-10-28T14:37:01.294Z,12.93
2022-10-28T14:40:29.178Z,12.98
2022-10-28T14:43:38.376Z,12.96
2022-10-28T14:46:56.251Z,13.07
2022-10-28T14:50:02.194Z,12.95
2022-10-28T14:53:08.371Z,12.84
2022-10-28T14:56:24.636Z,12.75
2022-10-28T14:59:29.656Z,12.73
2022-10-28T15:02:34.101Z,12.57
2022-10-28T15:05:37.339Z,12.59
2022-10-28T15:08:40.341Z,12.60
2022-10-28T15:11:46.224Z,12.54
2022-10-28T15:14:52.335Z,12.61
2022-10-28T15:17:55.505Z,12.56
2022-10-28T15:21:10.168Z,12.61
2022-10-28T15:24:13.924Z,12.60
2022-10-28T15:27:17.383Z,12.59
2022-10-28T15:30:25.182Z,12.50
2022-10-28T15:33:32.991Z,12.35
2022-10-28T15:36:36.017Z,12.48
2022-10-28T15:39:39.838Z,12.54
2022-10-28T15:42:45.899Z,12.55
2022-10-28T15:45:49.367Z,12.46
2022-10-28T15:48:53.531Z,12.46
2022-10-28T15:52:20.844Z,12.47
2022-10-28T15:55:35.942Z,12.49
2022-10-28T15:58:59.546Z,12.32
2022-10-28T16:02:02.505Z,12.28
2022-10-28T16:05:07.831Z,12.33
2022-10-28T16:08:17.806Z,12.33
2022-10-28T16:11:21.216Z,12.26
2022-10-28T16:14:44.204Z,12.31
2022-10-28T16:17:47.282Z,12.21
2022-10-28T16:20:50.125Z,12.21
2022-10-28T16:23:59.096Z,12.21
2022-10-28T16:27:18.600Z,12.24
2022-10-28T16:33:32.318Z,12.14
2022-10-28T16:36:35.473Z,12.18
2022-10-28T16:39:38.243Z,12.16
2022-10-28T16:42:41.602Z,12.11
2022-10-28T16:45:44.486Z,12.14
2022-10-28T16:48:47.724Z,12.19
2022-10-28T16:51:50.782Z,12.19
2022-10-28T16:54:54.023Z,12.15
2022-10-28T16:57:57.451Z,12.15
2022-10-28T17:01:01.420Z,12.21
2022-10-28T17:04:05.657Z,12.25
2022-10-28T17:07:08.794Z,12.30
2022-10-28T17:10:13.419Z,12.26
2022-10-28T17:13:16.977Z,12.13
2022-10-28T17:16:20.339Z,12.20
2022-10-28T17:19:24.908Z,12.23
2022-10-28T17:22:29.274Z,12.25
2022-10-28T17:25:32.598Z,12.17
2022-10-28T17:28:36.316Z,12.14
2022-10-28T17:31:40.036Z,12.06
2022-10-28T17:34:44.218Z,12.02
2022-10-28T17:37:48.295Z,12.01
2022-10-28T17:40:55.940Z,12.03
2022-10-28T17:43:59.167Z,11.98
2022-10-28T17:47:02.451Z,12.01
2022-10-28T17:50:07.325Z,12.00
2022-10-28T17:53:11.749Z,11.93
2022-10-28T17:56:15.054Z,11.97
2022-10-28T17:59:19.400Z,11.94
2022-10-28T18:02:23.229Z,11.94
2022-10-28T18:05:28.085Z,12.00
2022-10-28T18:08:37.472Z,11.99
2022-10-28T18:11:41.911Z,11.92
2022-10-28T18:14:45.002Z,12.00
2022-10-28T18:17:50.484Z,11.97
2022-10-28T18:20:55.776Z,11.97
2022-10-28T18:24:04.349Z,11.90
2022-10-28T18:27:07.828Z,11.85
2022-10-28T18:30:12.785Z,11.79
2022-10-28T18:33:16.067Z,11.85
2022-10-28T18:36:23.923Z,11.76
2022-10-28T18:39:27.178Z,11.65
2022-10-28T18:42:32.012Z,11.72
2022-10-28T18:45:36.223Z,11.73
2022-10-28T18:48:39.998Z,11.70
2022-10-28T18:51:43.398Z,11.71
2022-10-28T18:54:47.386Z,11.75
2022-10-28T18:57:57.255Z,11.73
2022-10-28T19:01:21.610Z,11.68
2022-10-28T19:04:24.601Z,11.69
2022-10-28T19:07:27.787Z,11.68
2022-10-28T19:10:31.019Z,11.66
2022-10-28T19:13:36.326Z,11.65
2022-10-28T19:16:40.681Z,11.75
2022-10-28T19:19:44.008Z,11.66
2022-10-28T19:22:48.158Z,11.61
2022-10-28T19:25:56.388Z,11.70
2022-10-28T19:29:00.196Z,11.71
2022-10-28T19:32:05.069Z,11.68
2022-10-28T19:35:09.335Z,11.75
2022-10-28T19:38:14.000Z,11.75
2022-10-28T19:41:18.400Z,11.72
2022-10-28T19:44:21.878Z,11.65
2022-10-28T19:47:24.939Z,11.74
2022-10-28T19:50:28.414Z,11.78
2022-10-28T19:53:32.462Z,11.74
2022-10-28T19:56:35.835Z,11.77
2022-10-28T19:59:39.116Z,11.77
2022-10-28T20:02:42.452Z,11.83
2022-10-28T20:05:45.996Z,11.77
2022-10-28T20:08:49.642Z,11.67
2022-10-28T20:11:53.002Z,11.75
2022-10-28T20:14:56.042Z,11.85
2022-10-28T20:17:59.213Z,11.84
2022-10-28T20:21:11.886Z,11.78
2022-10-28T20:24:16.116Z,11.80
2022-10-28T20:27:19.114Z,11.83
2022-10-28T20:30:22.132Z,11.81
2022-10-28T20:33:27.241Z,11.75
2022-10-28T20:36:30.233Z,11.79
2022-10-28T20:39:33.574Z,11.82
2022-10-28T20:42:37.016Z,11.78
2022-10-28T20:45:39.808Z,11.85
2022-10-28T20:48:42.954Z,11.83
2022-10-28T20:51:45.868Z,11.87
2022-10-28T20:54:48.906Z,11.81
2022-10-28T20:57:51.946Z,11.81
2022-10-28T21:00:55.108Z,11.87
2022-10-28T21:04:00.697Z,11.90
2022-10-28T21:07:03.720Z,12.00
2022-10-28T21:10:07.048Z,11.93
2022-10-28T21:13:10.126Z,11.89
2022-10-28T21:16:14.659Z,11.81
2022-10-28T21:19:17.646Z,11.88
2022-10-28T21:22:21.608Z,11.85
2022-10-28T21:25:34.467Z,11.92
2022-10-28T21:28:37.595Z,11.83
2022-10-28T21:31:40.631Z,11.91
2022-10-28T21:34:43.982Z,11.87
2022-10-28T21:37:47.144Z,11.95
2022-10-28T21:40:50.311Z,11.99
2022-10-28T21:43:54.645Z,12.02
2022-10-28T21:46:57.622Z,11.97
2022-10-28T21:50:00.887Z,12.02
2022-10-28T21:53:04.270Z,12.04
2022-10-28T21:56:16.701Z,11.99
2022-10-28T21:59:20.665Z,11.99
2022-10-28T22:02:23.840Z,11.93
2022-10-28T22:05:26.899Z,11.89
2022-10-28T22:08:30.012Z,11.96
2022-10-28T22:11:33.069Z,12.04
2022-10-28T22:14:36.000Z,11.99
2022-10-28T22:17:39.849Z,12.00
2022-10-28T22:20:42.669Z,11.94
2022-10-28T22:23:45.808Z,11.98
2022-10-28T22:26:48.830Z,12.04
2022-10-28T22:29:51.843Z,12.03
2022-10-28T22:32:54.913Z,12.00
2022-10-28T22:36:03.459Z,12.00
2022-10-28T22:39:06.610Z,11.86
2022-10-28T22:42:09.661Z,11.88
2022-10-28T22:45:12.384Z,11.90
2022-10-28T22:48:15.495Z,11.96
2022-10-28T22:51:18.851Z,11.98
2022-10-28T22:54:22.160Z,11.90
2022-10-28T22:57:24.883Z,11.89
2022-10-28T23:00:27.924Z,11.90
2022-10-28T23:03:38.648Z,11.91
2022-10-28T23:06:41.914Z,11.89
2022-10-28T23:09:44.610Z,11.93
2022-10-28T23:12:47.768Z,11.92
2022-10-28T23:15:50.501Z,11.97
2022-10-28T23:18:53.888Z,11.88
2022-10-28T23:21:56.618Z,11.81
2022-10-28T23:24:59.754Z,11.78
2022-10-28T23:28:05.249Z,11.75
2022-10-28T23:31:10.107Z,11.75
2022-10-28T23:34:12.812Z,11.72
2022-10-28T23:37:15.838Z,11.74
2022-10-28T23:40:18.531Z,11.71
2022-10-28T23:43:21.625Z,11.65
2022-10-28T23:46:25.190Z,11.73
2022-10-28T23:49:28.215Z,11.75
2022-10-28T23:52:31.042Z,11.69
2022-10-28T23:55:34.863Z,11.77
2022-10-28T23:58:37.587Z,11.77
